Time;durP1;ratioP1;P1;durP2;ratioP2;P2;SDS_P1;SDS_P2;PMS_P1;PMS_P2;Temp;Humidity;BMP_temperature;BMP_pressure;BME280_temperature;BME280_humidity;BME280_pressure;Samples;Min_cycle;Max_cycle;Signal;HPM_P1;HPM_P2
2023/11/05 00:07:27;;;;;;;;;;;;;;;8.47;100.00;96988.31;4948936;28;19925;-82
2023/11/05 00:13:12;;;;;;;;;;;;;;;;;;;;;
2023/11/05 00:15:38;;;;;;;;;;;;;;;8.50;100.00;96987.75;4943592;28;20031;-82
2023/11/05 00:18:28;;;;;;;;;;;;;;;8.48;100.00;96990.72;4950889;28;20001;-83
2023/11/05 00:32:27;;;;;;;;;;;;;;;8.27;100.00;96979.31;5029359;23;19927;-82
2023/11/05 00:35:01;;;;;;;;;;;;;;;8.22;100.00;96976.66;4898971;29;19957;-82
2023/11/05 00:37:29;;;;;;;;;;;;;;;8.21;100.00;96975.06;4900239;29;20006;-82
2023/11/05 00:39:57;;;;;;;;;;;;;;;8.29;100.00;96960.28;4898021;29;20342;-82
2023/11/05 00:42:34;;;;;;;;;;;;;;;8.25;100.00;96970.75;4901394;29;20367;-82
2023/11/05 00:45:00;;;;;;;;;;;;;;;8.26;100.00;96972.34;4896108;29;20042;-82
2023/11/05 00:59:35;;;;;;;;;;;;;;;8.09;100.00;96958.53;5536919;23;19970;-82
2023/11/05 01:02:39;;;;;;;;;;;;;;;;;;;;;
2023/11/05 01:05:25;;;;;;;;;;;;;;;8.00;100.00;96950.28;4901970;29;19918;-82
2023/11/05 01:08:01;;;;;;;;;;;;;;;;;;;;;
2023/11/05 01:10:30;;;;;;;;;;;;;;;8.11;100.00;96945.66;4926831;29;19922;-82
2023/11/05 01:16:26;;;;;;;;;;;;;;;8.13;100.00;96946.16;4949760;28;20000;-83
2023/11/05 01:28:28;;;;;;;;;;;;;;;8.41;100.00;96938.47;5363179;23;20364;-83
2023/11/05 01:34:37;;;;;;;;;;;;;;;8.47;100.00;96934.69;4918347;29;19929;-83
2023/11/05 01:37:30;;;;;;;;;;;;;;;8.53;100.00;96932.81;4922496;29;19988;-83
2023/11/05 01:40:30;;;;;;;;;;;;;;;8.51;100.00;96933.06;4922899;29;20411;-82
2023/11/05 01:43:04;;;;;;;;;;;;;;;8.53;100.00;96922.88;4920172;29;19926;-83
2023/11/05 01:45:29;;;;;;;;;;;;;;;8.54;100.00;96908.38;4924268;29;19958;-83
2023/11/05 01:48:32;;;;;;;;;;;;;;;8.58;100.00;96922.00;4929031;29;20363;-82
2023/11/05 02:00:36;;;;;;;;;;;;;;;8.44;100.00;96908.44;4928143;29;19926;-82
2023/11/05 02:03:02;;;;;;;;;;;;;;;8.45;100.00;96904.69;4881495;29;20486;-83
2023/11/05 02:05:33;;;;;;;;;;;;;;;8.42;100.00;96907.94;4923425;29;20006;-83
2023/11/05 02:08:29;;;;;;;;;;;;;;;8.38;100.00;96896.16;4921692;29;19926;-82
2023/11/05 02:11:01;;;;;;;;;;;;;;;8.34;100.00;96899.41;4957036;28;20024;-82
2023/11/05 02:21:43;;;;;;;;;;;;;;;8.24;100.00;96872.69;5518789;23;19922;-82
2023/11/05 02:24:09;;;;;;;;;;;;;;;8.29;100.00;96874.53;4934890;28;20011;-82
2023/11/05 02:26:34;;;;;;;;;;;;;;;8.32;100.00;96880.13;4952794;28;20385;-82
2023/11/05 02:28:59;;;;;;;;;;;;;;;8.32;100.00;96864.03;4951383;28;19926;-82
2023/11/05 02:31:24;;;;;;;;;;;;;;;8.34;100.00;96861.09;4928507;29;19918;-82
2023/11/05 02:33:51;;;;;;;;;;;;;;;8.39;100.00;96869.06;4953246;28;19918;-82
2023/11/05 02:36:16;;;;;;;;;;;;;;;8.46;100.00;96866.88;4951857;28;19922;-82
2023/11/05 02:38:42;;;;;;;;;;;;;;;8.45;100.00;96872.53;4954055;28;20294;-82
2023/11/05 02:41:11;;;;;;;;;;;;;;;8.38;100.00;96877.41;4953891;28;19973;-82
2023/11/05 02:43:36;;;;;;;;;;;;;;;8.44;100.00;96870.94;4954918;28;19918;-81
2023/11/05 02:46:02;;;;;;;;;;;;;;;8.46;100.00;96868.78;4954462;28;20390;-82
2023/11/05 02:48:30;;;;;;;;;;;;;;;8.46;100.00;96866.09;4952205;28;20426;-82
2023/11/05 02:50:55;;;;;;;;;;;;;;;8.32;100.00;96861.34;4951156;28;19914;-83
2023/11/05 02:53:21;;;;;;;;;;;;;;;8.35;100.00;96860.03;4954095;28;19918;-83
2023/11/05 02:55:46;;;;;;;;;;;;;;;8.37;100.00;96870.44;4954559;28;20390;-82
2023/11/05 02:58:12;;;;;;;;;;;;;;;8.35;100.00;96858.13;4954382;28;19925;-83
2023/11/05 03:00:37;;;;;;;;;;;;;;;8.34;100.00;96861.88;5809382;23;19961;-82
2023/11/05 03:03:02;;;;;;;;;;;;;;;8.37;100.00;96867.75;4933943;29;19922;-83
2023/11/05 03:05:27;;;;;;;;;;;;;;;8.35;100.00;96868.06;4936264;29;19930;-83
2023/11/05 03:07:52;;;;;;;;;;;;;;;8.28;100.00;96854.97;4933990;29;19918;-83
2023/11/05 03:10:18;;;;;;;;;;;;;;;8.30;100.00;96855.47;4946686;29;19918;-84
2023/11/05 03:12:43;;;;;;;;;;;;;;;8.31;100.00;96864.34;4928455;29;19914;-83
2023/11/05 03:15:08;;;;;;;;;;;;;;;8.27;100.00;96850.69;4936548;29;19938;-83
2023/11/05 03:17:36;;;;;;;;;;;;;;;8.34;100.00;96850.38;4928976;29;19927;-82
2023/11/05 03:20:02;;;;;;;;;;;;;;;8.30;100.00;96850.13;4933982;29;20015;-83
2023/11/05 03:22:27;;;;;;;;;;;;;;;8.29;100.00;96843.19;4931200;29;20538;-83
2023/11/05 03:24:55;;;;;;;;;;;;;;;8.30;100.00;96843.97;4932265;29;19926;-83
2023/11/05 03:27:20;;;;;;;;;;;;;;;8.28;100.00;96846.13;4939592;29;19918;-82
2023/11/05 03:29:45;;;;;;;;;;;;;;;8.27;100.00;96844.53;4940870;29;19946;-82
2023/11/05 03:32:13;;;;;;;;;;;;;;;8.28;100.00;96843.44;4940562;29;19918;-82
2023/11/05 03:34:38;;;;;;;;;;;;;;;8.17;100.00;96834.69;4914372;29;19919;-83
2023/11/05 03:37:04;;;;;;;;;;;;;;;8.16;100.00;96833.91;5095505;23;20458;-83
2023/11/05 03:39:29;;;;;;;;;;;;;;;8.13;100.00;96837.16;4952856;28;20531;-83
2023/11/05 03:45:22;;;;;;;;;;;;;;;8.06;100.00;96835.88;4950100;28;19993;-83
2023/11/05 03:47:48;;;;;;;;;;;;;;;8.11;100.00;96827.81;5198459;23;19932;-82
2023/11/05 03:50:13;;;;;;;;;;;;;;;8.15;100.00;96836.84;4967639;28;19972;-82
2023/11/05 03:52:38;;;;;;;;;;;;;;;8.08;100.00;96831.81;4971341;28;20424;-81
2023/11/05 03:55:03;;;;;;;;;;;;;;;8.14;100.00;96824.53;4966894;28;20318;-81
2023/11/05 03:57:29;;;;;;;;;;;;;;;8.14;100.00;96829.91;4973080;28;20334;-81
2023/11/05 03:59:54;;;;;;;;;;;;;;;8.19;100.00;96828.00;4976488;28;19918;-82
2023/11/05 04:02:20;;;;;;;;;;;;;;;8.17;100.00;96830.16;4968590;28;20000;-82
2023/11/05 04:04:47;;;;;;;;;;;;;;;8.20;100.00;96831.47;4965767;28;20010;-82
2023/11/05 04:07:12;;;;;;;;;;;;;;;8.24;100.00;96829.81;4974454;28;19925;-81
2023/11/05 04:09:37;;;;;;;;;;;;;;;8.22;100.00;96828.50;4973236;28;20703;-82
2023/11/05 04:12:03;;;;;;;;;;;;;;;8.30;100.00;96828.69;4971056;28;20295;-83
2023/11/05 04:14:29;;;;;;;;;;;;;;;8.27;100.00;96834.63;4967720;28;20271;-83
2023/11/05 04:16:54;;;;;;;;;;;;;;;8.29;100.00;96832.47;4962712;28;20017;-82
2023/11/05 04:19:19;;;;;;;;;;;;;;;8.30;100.00;96838.63;4969207;28;19918;-82
2023/11/05 04:21:45;;;;;;;;;;;;;;;8.33;100.00;96822.75;4969990;28;19918;-82
2023/11/05 04:35:26;;;;;;;;;;;;;;;8.43;100.00;96821.88;4957380;28;20013;-83
2023/11/05 04:38:04;;;;;;;;;;;;;;;8.46;100.00;96823.22;4955850;28;20355;-82
2023/11/05 04:40:31;;;;;;;;;;;;;;;8.45;100.00;96817.03;4950402;28;19918;-82
2023/11/05 04:42:59;;;;;;;;;;;;;;;8.52;100.00;96816.72;4954402;28;19918;-82
2023/11/05 04:45:24;;;;;;;;;;;;;;;8.51;100.00;96827.75;4951084;28;20358;-82
2023/11/05 04:48:02;;;;;;;;;;;;;;;8.43;100.00;96826.44;4952325;28;19969;-82
2023/11/05 04:50:27;;;;;;;;;;;;;;;8.53;100.00;96829.06;4951636;28;19945;-82
2023/11/05 04:53:04;;;;;;;;;;;;;;;8.56;100.00;96831.16;4950892;28;20422;-82
2023/11/05 04:55:30;;;;;;;;;;;;;;;8.47;100.00;96828.28;4944890;28;19919;-82
2023/11/05 04:58:26;;;;;;;;;;;;;;;8.55;100.00;96828.78;4950075;28;20393;-82
2023/11/05 05:00:52;;;;;;;;;;;;;;;8.62;100.00;96824.69;4947964;28;19926;-82
2023/11/05 05:03:20;;;;;;;;;;;;;;;8.62;100.00;96830.03;4950303;28;19918;-82
2023/11/05 05:05:45;;;;;;;;;;;;;;;8.65;100.00;96831.34;4952472;28;19925;-82
2023/11/05 05:08:10;;;;;;;;;;;;;;;8.58;100.00;96834.38;4949009;28;19922;-82
2023/11/05 05:10:35;;;;;;;;;;;;;;;8.55;100.00;96839.50;4950619;28;19929;-82
2023/11/05 05:13:00;;;;;;;;;;;;;;;8.58;100.00;96837.06;4949129;28;19926;-82
2023/11/05 05:15:26;;;;;;;;;;;;;;;8.59;100.00;96851.25;4950486;28;19926;-82
2023/11/05 05:17:51;;;;;;;;;;;;;;;8.59;100.00;96841.34;4953576;28;19926;-82
2023/11/05 05:22:51;;;;;;;;;;;;;;;8.57;100.00;96838.13;5148392;23;19930;-81
2023/11/05 05:25:17;;;;;;;;;;;;;;;8.54;100.00;96841.38;4954263;28;20267;-82
2023/11/05 05:27:42;;;;;;;;;;;;;;;8.56;100.00;96836.53;4952997;28;19922;-82
2023/11/05 05:30:08;;;;;;;;;;;;;;;8.53;100.00;96842.44;4953042;28;19973;-82
2023/11/05 05:32:33;;;;;;;;;;;;;;;8.55;100.00;96842.97;4949126;28;19919;-82
2023/11/05 05:34:58;;;;;;;;;;;;;;;8.62;100.00;96846.13;4955903;28;19918;-82
2023/11/05 05:37:24;;;;;;;;;;;;;;;8.65;100.00;96839.38;4983285;23;19977;-82
2023/11/05 05:40:23;;;;;;;;;;;;;;;8.63;100.00;96847.72;4949176;28;19941;-82
2023/11/05 05:42:48;;;;;;;;;;;;;;;8.56;100.00;96841.88;4946805;28;19942;-82
2023/11/05 05:48:43;;;;;;;;;;;;;;;8.60;100.00;96852.84;4949656;28;20351;-82
2023/11/05 05:51:39;;;;;;;;;;;;;;;8.56;100.00;96851.81;4950368;28;20271;-82
2023/11/05 05:57:25;;;;;;;;;;;;;;;8.60;100.00;96855.53;4953717;28;20052;-82
2023/11/05 06:00:21;;;;;;;;;;;;;;;8.58;100.00;96853.13;4947198;28;20598;-81
2023/11/05 06:02:47;;;;;;;;;;;;;;;8.56;100.00;96860.66;4954143;28;19926;-81
2023/11/05 06:05:27;;;;;;;;;;;;;;;8.61;100.00;96849.06;4956523;29;19925;-82
2023/11/05 06:07:52;;;;;;;;;;;;;;;8.65;100.00;96856.25;5389893;23;20876;-82
2023/11/05 06:10:17;;;;;;;;;;;;;;;8.62;100.00;96862.22;4955349;28;20000;-83
2023/11/05 06:12:43;;;;;;;;;;;;;;;8.65;100.00;96856.25;4957515;28;19985;-81
2023/11/05 06:24:22;;;;;;;;;;;;;;;8.65;100.00;96856.25;4969778;23;19981;-83
2023/11/05 06:30:03;;;;;;;;;;;;;;;8.73;100.00;96878.19;4897586;23;19937;-82
2023/11/05 06:32:29;;;;;;;;;;;;;;;8.72;100.00;96885.44;4942094;29;19973;-82
2023/11/05 06:37:48;;;;;;;;;;;;;;;8.72;100.00;96887.31;4941010;29;19924;-83
2023/11/05 06:49:25;;;;;;;;;;;;;;;8.73;100.00;96899.66;5014413;23;19927;-82
2023/11/05 07:00:44;;;;;;;;;;;;;;;8.79;100.00;96909.25;5991262;23;19960;-83
2023/11/05 07:03:31;;;;;;;;;;;;;;;8.84;100.00;96917.22;4953453;28;19976;-82
2023/11/05 07:06:25;;;;;;;;;;;;;;;8.85;100.00;96918.81;4956128;29;19957;-82
2023/11/05 07:13:54;;;;;;;;;;;;;;;8.90;100.00;96937.56;5637057;23;19930;-83
2023/11/05 07:16:23;;;;;;;;;;;;;;;8.91;100.00;96933.00;4935591;29;19997;-83
2023/11/05 07:18:48;;;;;;;;;;;;;;;8.85;100.00;96947.53;4934613;29;19922;-83
2023/11/05 07:21:38;;;;;;;;;;;;;;;8.78;100.00;96953.22;4935417;29;19930;-83
2023/11/05 07:24:06;;;;;;;;;;;;;;;8.62;100.00;96953.38;4934233;29;19922;-83
2023/11/05 07:26:32;;;;;;;;;;;;;;;8.85;100.00;96959.06;4937450;29;20013;-84
2023/11/05 07:32:25;;;;;;;;;;;;;;;9.03;100.00;96957.56;4952043;23;19960;-83
2023/11/05 07:34:51;;;;;;;;;;;;;;;9.00;100.00;96968.84;4955826;28;19929;-79
2023/11/05 07:37:49;;;;;;;;;;;;;;;9.09;100.00;96959.09;4964651;28;19922;-77
2023/11/05 07:43:22;;;;;;;;;;;;;;;9.20;100.00;96970.53;4925025;28;20005;-81
2023/11/05 07:45:47;;;;;;;;;;;;;;;9.31;100.00;96973.13;4954758;28;20002;-81
2023/11/05 07:48:25;;;;;;;;;;;;;;;9.37;100.00;96975.47;4953721;28;19937;-80
2023/11/05 07:56:56;;;;;;;;;;;;;;;9.49;100.00;96976.94;4950120;29;19924;-82
2023/11/05 07:59:39;;;;;;;;;;;;;;;9.62;100.00;96978.16;4958460;29;21901;-83
2023/11/05 08:05:34;;;;;;;;;;;;;;;9.72;100.00;96988.75;4961879;28;19977;-81
2023/11/05 08:08:08;;;;;;;;;;;;;;;9.75;100.00;96998.94;4953930;28;20342;-82
2023/11/05 08:13:29;;;;;;;;;;;;;;;9.92;100.00;97003.03;4980218;23;19922;-83
2023/11/05 08:18:58;;;;;;;;;;;;;;;9.98;100.00;97007.25;4952801;28;19924;-81
2023/11/05 08:21:25;;;;;;;;;;;;;;;10.11;100.00;97008.44;4953305;28;19918;-82
2023/11/05 08:24:27;;;;;;;;;;;;;;;10.20;100.00;97012.06;4959763;28;19929;-81
2023/11/05 08:36:05;;;;;;;;;;;;;;;10.30;100.00;97041.53;5146474;23;19973;-79
2023/11/05 08:38:30;;;;;;;;;;;;;;;10.35;100.00;97048.72;4931771;29;19930;-79
2023/11/05 08:40:55;;;;;;;;;;;;;;;10.19;100.00;97058.06;4932887;29;19927;-79
2023/11/05 08:43:43;;;;;;;;;;;;;;;10.21;100.00;97050.53;4941398;29;19941;-79
2023/11/05 08:46:08;;;;;;;;;;;;;;;10.21;100.00;97063.97;4938747;29;19918;-80
2023/11/05 08:48:34;;;;;;;;;;;;;;;10.09;100.00;97065.16;4945219;29;19918;-80
2023/11/05 08:51:05;;;;;;;;;;;;;;;9.83;100.00;97060.09;4932972;29;19919;-80
2023/11/05 08:53:30;;;;;;;;;;;;;;;9.93;100.00;97061.03;4946536;29;19925;-79
2023/11/05 08:55:55;;;;;;;;;;;;;;;9.96;100.00;97073.91;4936623;29;20259;-80
2023/11/05 08:58:23;;;;;;;;;;;;;;;9.83;100.00;97076.22;4941842;29;20062;-80
2023/11/05 09:00:55;;;;;;;;;;;;;;;9.92;100.00;97073.69;4937671;29;20048;-80
2023/11/05 09:03:30;;;;;;;;;;;;;;;9.93;100.00;97086.03;4938138;29;20517;-79
2023/11/05 09:05:55;;;;;;;;;;;;;;;10.05;100.00;97085.66;4935264;29;19919;-79
2023/11/05 09:08:20;;;;;;;;;;;;;;;10.13;100.00;97089.59;4948636;29;19918;-79
2023/11/05 09:10:46;;;;;;;;;;;;;;;10.28;100.00;97097.47;4936889;29;20183;-80
2023/11/05 09:13:11;;;;;;;;;;;;;;;10.32;100.00;97103.84;4938996;29;20271;-80
2023/11/05 09:15:36;;;;;;;;;;;;;;;10.31;100.00;97104.13;4937121;29;20299;-79
2023/11/05 09:18:01;;;;;;;;;;;;;;;10.37;100.00;97113.75;4943371;29;20224;-79
2023/11/05 09:38:25;;;;;;;;;;;;;;;10.34;100.00;97145.75;5246073;23;19922;-79
2023/11/05 09:40:50;;;;;;;;;;;;;;;10.56;100.00;97146.06;4975463;28;19924;-80
2023/11/05 09:45:52;;;;;;;;;;;;;;;10.67;100.00;97152.13;5899080;23;20235;-79
2023/11/05 09:48:17;;;;;;;;;;;;;;;10.68;100.00;97161.00;5053637;23;19921;-80
2023/11/05 09:50:42;;;;;;;;;;;;;;;10.77;100.00;97165.44;4974195;28;19925;-80
2023/11/05 09:53:10;;;;;;;;;;;;;;;10.85;100.00;97176.66;4963991;28;19922;-80
2023/11/05 09:55:35;;;;;;;;;;;;;;;10.91;100.00;97167.41;4964240;28;19922;-78
2023/11/05 09:58:01;;;;;;;;;;;;;;;10.86;100.00;97178.25;4955729;28;19919;-79
2023/11/05 10:00:32;;;;;;;;;;;;;;;10.88;100.00;97178.75;4956406;28;20005;-80
2023/11/05 10:02:58;;;;;;;;;;;;;;;10.75;100.00;97189.16;4958097;28;19926;-79
2023/11/05 10:05:24;;;;;;;;;;;;;;;10.66;100.00;97196.25;4973113;28;20028;-79
2023/11/05 10:07:50;;;;;;;;;;;;;;;10.69;100.00;97194.84;4957153;28;19925;-78
2023/11/05 10:10:15;;;;;;;;;;;;;;;10.67;100.00;97200.53;4964191;28;20240;-79
2023/11/05 10:12:41;;;;;;;;;;;;;;;10.64;100.00;97206.50;4955268;28;19949;-78
2023/11/05 10:15:06;;;;;;;;;;;;;;;10.60;100.00;97214.34;4958711;28;19914;-79
2023/11/05 10:17:33;;;;;;;;;;;;;;;10.49;100.00;97214.75;4948891;28;20408;-78
2023/11/05 10:19:58;;;;;;;;;;;;;;;10.59;100.00;97214.63;4973607;28;19921;-78
2023/11/05 10:22:24;;;;;;;;;;;;;;;10.65;100.00;97220.75;4970375;28;19918;-78
2023/11/05 10:24:51;;;;;;;;;;;;;;;10.52;100.00;97230.31;4963598;28;19919;-78
2023/11/05 10:27:30;;;;;;;;;;;;;;;10.70;100.00;97226.06;4964658;28;19923;-79
2023/11/05 10:29:55;;;;;;;;;;;;;;;10.71;100.00;97225.78;4969010;28;19925;-79
2023/11/05 10:32:22;;;;;;;;;;;;;;;10.89;100.00;97236.88;4977281;28;19918;-78
2023/11/05 10:34:51;;;;;;;;;;;;;;;10.83;100.00;97235.31;4952780;28;20316;-79
2023/11/05 10:37:18;;;;;;;;;;;;;;;10.60;100.00;97238.53;4955121;28;19926;-80
2023/11/05 10:39:45;;;;;;;;;;;;;;;10.70;100.00;97245.69;4967297;28;19922;-78
2023/11/05 10:42:12;;;;;;;;;;;;;;;10.66;100.00;97252.72;4945294;28;19977;-80
2023/11/05 10:44:38;;;;;;;;;;;;;;;10.72;100.00;97240.84;4961160;28;19918;-80
2023/11/05 10:47:03;;;;;;;;;;;;;;;10.53;100.00;97253.41;4943044;28;19981;-79
2023/11/05 10:49:28;;;;;;;;;;;;;;;10.68;100.00;97261.31;4971358;28;19918;-80
2023/11/05 10:51:53;;;;;;;;;;;;;;;10.58;100.00;97272.19;4964874;28;20319;-79
2023/11/05 10:54:19;;;;;;;;;;;;;;;10.62;100.00;97275.91;4954140;28;19945;-79
2023/11/05 10:56:46;;;;;;;;;;;;;;;10.46;100.00;97276.06;4941705;28;19930;-79
2023/11/05 10:59:11;;;;;;;;;;;;;;;10.53;100.00;97274.94;4965595;28;19945;-79
2023/11/05 11:01:37;;;;;;;;;;;;;;;10.56;100.00;97285.91;4991568;28;19918;-80
2023/11/05 11:09:49;;;;;;;;;;;;;;;10.37;100.00;97288.50;4910244;29;19929;-81
2023/11/05 11:12:45;;;;;;;;;;;;;;;10.34;100.00;97291.75;4898821;29;19923;-81
2023/11/05 11:15:39;;;;;;;;;;;;;;;10.31;100.00;97303.91;4915398;29;20447;-81
2023/11/05 11:18:20;;;;;;;;;;;;;;;10.40;100.00;97304.13;4912619;29;20073;-81
2023/11/05 11:23:49;;;;;;;;;;;;;;;10.37;100.00;97317.25;4822748;29;20344;-80
2023/11/05 11:26:27;;;;;;;;;;;;;;;10.41;100.00;97304.91;4821341;29;19964;-80
2023/11/05 11:28:53;;;;;;;;;;;;;;;10.39;100.00;97310.56;4814580;29;19985;-81
2023/11/05 11:31:25;;;;;;;;;;;;;;;10.36;100.00;97313.78;4823777;29;20399;-80
2023/11/05 11:36:25;;;;;;;;;;;;;;;10.27;100.00;97329.72;5781449;23;19923;-79
2023/11/05 11:39:21;;;;;;;;;;;;;;;10.23;100.00;97326.00;4957440;28;19924;-79
2023/11/05 11:45:02;;;;;;;;;;;;;;;10.10;100.00;97350.84;4866950;29;19924;-80
2023/11/05 12:16:25;;;;;;;;;;;;;;;9.88;100.00;97432.66;6251586;23;19984;-82
2023/11/05 12:18:50;;;;;;;;;;;;;;;9.84;100.00;97437.78;6248234;23;20352;-82
2023/11/05 12:21:22;;;;;;;;;;;;;;;9.91;100.00;97436.66;6250332;22;20030;-82
2023/11/05 12:23:47;;;;;;;;;;;;;;;9.88;100.00;97446.09;6251490;22;19966;-81
2023/11/05 12:26:21;;;;;;;;;;;;;;;10.00;100.00;97457.28;6250603;23;19911;-82
2023/11/05 12:28:46;;;;;;;;;;;;;;;10.10;100.00;97461.81;6251179;23;20229;-81
2023/11/05 12:31:24;;;;;;;;;;;;;;;10.19;100.00;97472.00;6254365;23;19915;-81
2023/11/05 12:43:26;;;;;;;;;;;;;;;10.37;100.00;97502.78;6216913;23;20400;-82
2023/11/05 13:04:34;;;;;;;;;;;;;;;10.50;100.00;97549.81;6215070;23;19966;-82
2023/11/05 13:10:42;;;;;;;;;;;;;;;10.28;100.00;97562.53;6209886;23;19927;-81
2023/11/05 13:13:51;;;;;;;;;;;;;;;10.31;100.00;97574.59;6209178;23;19920;-81
2023/11/05 13:25:47;;;;;;;;;;;;;;;10.56;100.00;97605.97;6213153;23;19967;-81
2023/11/05 13:28:44;;;;;;;;;;;;;;;10.72;100.00;97620.16;6213161;23;20333;-80
2023/11/05 13:32:02;;;;;;;;;;;;;;;10.59;100.00;97618.09;6213968;23;19918;-80
2023/11/05 13:34:24;;;;;;;;;;;;;;;10.64;100.00;97642.25;6207238;23;19919;-80
2023/11/05 13:36:56;;;;;;;;;;;;;;;10.55;100.00;97654.69;6212004;23;19912;-80
2023/11/05 13:39:30;;;;;;;;;;;;;;;10.51;100.00;97648.22;6183925;23;19915;-80
2023/11/05 13:54:03;;;;;;;;;;;;;;;10.24;100.00;97693.19;6205109;23;19947;-80
2023/11/05 13:56:28;;;;;;;;;;;;;;;9.84;100.00;97698.38;6183498;23;19916;-80
2023/11/05 14:10:59;;;;;;;;;;;;;;;9.64;100.00;97739.47;6182765;23;20265;-80
2023/11/05 14:13:24;;;;;;;;;;;;;;;9.61;100.00;97752.63;6182646;23;20365;-80
2023/11/05 14:15:58;;;;;;;;;;;;;;;9.56;100.00;97751.53;6181626;23;20223;-80
2023/11/05 14:27:40;;;;;;;;;;;;;;;9.54;100.00;97793.16;6180486;23;20186;-80
2023/11/05 14:30:24;;;;;;;;;;;;;;;9.39;100.00;97802.00;6184289;23;20019;-79
2023/11/05 14:32:49;;;;;;;;;;;;;;;9.37;100.00;97804.13;6182044;23;20054;-80
2023/11/05 14:35:24;;;;;;;;;;;;;;;9.31;100.00;97814.06;6182827;23;19912;-80
2023/11/05 14:37:50;;;;;;;;;;;;;;;9.23;100.00;97825.31;6181979;23;19916;-79
2023/11/05 14:40:25;;;;;;;;;;;;;;;9.20;100.00;97821.25;6182032;23;19917;-79
2023/11/05 14:43:29;;;;;;;;;;;;;;;9.27;100.00;97828.28;6181986;23;19939;-80
2023/11/05 14:45:56;;;;;;;;;;;;;;;9.23;100.00;97841.41;6090986;23;19952;-79
2023/11/05 14:48:26;;;;;;;;;;;;;;;9.27;100.00;97841.69;6166659;23;19912;-79
2023/11/05 14:50:53;;;;;;;;;;;;;;;9.30;100.00;97852.69;6182226;23;20000;-79
2023/11/05 14:53:19;;;;;;;;;;;;;;;9.39;100.00;97853.00;6183357;23;19917;-80
2023/11/05 14:55:44;;;;;;;;;;;;;;;9.41;100.00;97858.91;6182279;23;19920;-79
2023/11/05 14:58:09;;;;;;;;;;;;;;;9.45;100.00;97873.44;6183444;23;20226;-79
2023/11/05 15:00:34;;;;;;;;;;;;;;;9.55;100.00;97872.66;6184007;23;20249;-79
2023/11/05 15:03:01;;;;;;;;;;;;;;;9.57;100.00;97881.28;6183038;23;19912;-80
2023/11/05 15:05:30;;;;;;;;;;;;;;;9.61;100.00;97900.34;6185238;23;19912;-79
2023/11/05 15:07:55;;;;;;;;;;;;;;;9.58;100.00;97899.00;6184514;23;19975;-79
2023/11/05 15:10:22;;;;;;;;;;;;;;;9.71;100.00;97906.56;6183524;23;20318;-80
2023/11/05 15:12:47;;;;;;;;;;;;;;;9.65;100.00;97912.19;6199322;23;19927;-80
2023/11/05 15:15:12;;;;;;;;;;;;;;;9.68;100.00;97915.13;6212619;23;19915;-78
2023/11/05 15:17:37;;;;;;;;;;;;;;;9.77;100.00;97920.81;6211022;23;19915;-79
2023/11/05 15:20:07;;;;;;;;;;;;;;;9.85;100.00;97928.38;6210854;23;19939;-79
2023/11/05 15:22:32;;;;;;;;;;;;;;;9.78;100.00;97935.84;6211130;23;19971;-79
2023/11/05 15:27:33;;;;;;;;;;;;;;;9.79;100.00;97950.13;6210131;23;19924;-80
2023/11/05 15:30:21;;;;;;;;;;;;;;;9.76;100.00;97966.75;6212528;23;19923;-80
2023/11/05 15:33:26;;;;;;;;;;;;;;;9.72;100.00;97966.44;6132318;23;19983;-80
2023/11/05 15:41:28;;;;;;;;;;;;;;;9.71;100.00;97978.25;6211893;23;20379;-78
2023/11/05 15:43:54;;;;;;;;;;;;;;;9.71;100.00;98002.44;6211455;23;19912;-79
2023/11/05 15:46:19;;;;;;;;;;;;;;;9.74;100.00;98007.28;6210239;23;19950;-79
2023/11/05 15:48:44;;;;;;;;;;;;;;;9.77;100.00;98019.41;6209347;23;19961;-80
2023/11/05 15:51:09;;;;;;;;;;;;;;;9.78;100.00;98023.72;6211105;23;20005;-80
2023/11/05 15:53:35;;;;;;;;;;;;;;;9.78;100.00;98032.56;6210856;23;19920;-79
2023/11/05 15:56:00;;;;;;;;;;;;;;;9.69;100.00;98037.63;6211016;23;19916;-81
2023/11/05 15:58:25;;;;;;;;;;;;;;;9.74;100.00;98039.53;6212062;23;19916;-80
2023/11/05 16:00:51;;;;;;;;;;;;;;;9.72;100.00;98047.03;6210684;23;19978;-81
2023/11/05 16:03:19;;;;;;;;;;;;;;;9.77;100.00;98028.28;6211203;23;19943;-79
2023/11/05 16:05:45;;;;;;;;;;;;;;;9.71;100.00;98045.41;6212444;23;19911;-80
2023/11/05 16:08:10;;;;;;;;;;;;;;;9.65;100.00;98063.38;6214708;23;20319;-80
2023/11/05 16:10:35;;;;;;;;;;;;;;;9.62;100.00;98063.91;6215687;23;20253;-80
2023/11/05 16:13:02;;;;;;;;;;;;;;;9.59;100.00;98061.75;6213409;23;20429;-80
2023/11/05 16:15:27;;;;;;;;;;;;;;;9.60;100.00;98071.44;6211898;23;19920;-81
2023/11/05 16:20:58;;;;;;;;;;;;;;;9.54;100.00;98096.63;6208925;23;19954;-81
2023/11/05 16:23:29;;;;;;;;;;;;;;;9.58;100.00;98102.28;6186237;23;19966;-81
2023/11/05 16:26:28;;;;;;;;;;;;;;;9.54;100.00;98104.69;6213289;23;20291;-80
2023/11/05 16:28:54;;;;;;;;;;;;;;;9.57;100.00;98109.56;6211347;23;20333;-80
2023/11/05 16:31:31;;;;;;;;;;;;;;;9.48;100.00;98119.97;6213880;23;19918;-80
2023/11/05 16:46:01;;;;;;;;;;;;;;;9.31;100.00;98159.56;6216679;23;19970;-80
2023/11/05 16:51:43;;;;;;;;;;;;;;;9.24;100.00;98187.41;6208021;23;19930;-80
2023/11/05 16:54:27;;;;;;;;;;;;;;;9.23;100.00;98185.00;6212134;23;19915;-80
2023/11/05 16:59:55;;;;;;;;;;;;;;;9.19;100.00;98202.66;6213212;23;20058;-79
2023/11/05 17:02:20;;;;;;;;;;;;;;;9.18;100.00;98196.47;6211651;23;20015;-80
2023/11/05 17:04:46;;;;;;;;;;;;;;;9.21;100.00;98217.44;6212025;23;19912;-80
2023/11/05 17:07:23;;;;;;;;;;;;;;;9.19;100.00;98216.88;6211567;23;19939;-79
2023/11/05 17:13:01;;;;;;;;;;;;;;;9.18;100.00;98239.41;6127747;23;19920;-80
2023/11/05 17:15:41;;;;;;;;;;;;;;;9.22;100.00;98237.84;6212102;23;20006;-80
2023/11/05 17:18:25;;;;;;;;;;;;;;;9.30;100.00;98249.22;6210603;23;19912;-81
2023/11/05 17:20:54;;;;;;;;;;;;;;;9.26;100.00;98254.28;6212641;23;19912;-81
2023/11/05 17:46:03;;;;;;;;;;;;;;;9.65;99.24;98334.69;6210691;23;20358;-80
2023/11/05 17:51:31;;;;;;;;;;;;;;;9.60;98.00;98358.00;6211510;23;19967;-81
2023/11/05 18:23:26;;;;;;;;;;;;;;;9.42;95.47;98437.03;6211636;23;19927;-80
2023/11/05 18:25:51;;;;;;;;;;;;;;;9.54;94.75;98441.22;6210891;23;19923;-80
2023/11/05 19:01:58;;;;;;;;;;;;;;;8.81;100.00;98532.53;6213068;23;19912;-84
2023/11/05 19:18:27;;;;;;;;;;;;;;;8.79;99.84;98582.91;6190447;22;19930;-83
2023/11/05 19:50:49;;;;;;;;;;;;;;;8.74;100.00;98676.69;6211422;23;19970;-86
2023/11/05 20:02:48;;;;;;;;;;;;;;;8.52;100.00;98698.00;6213993;23;19916;-85
2023/11/05 20:05:19;;;;;;;;;;;;;;;8.47;100.00;98715.56;6218039;23;19946;-86
2023/11/05 20:07:47;;;;;;;;;;;;;;;8.48;100.00;98719.09;6216771;23;19922;-86
2023/11/05 20:13:29;;;;;;;;;;;;;;;8.68;100.00;98726.75;6214758;23;20350;-86
2023/11/05 20:19:30;;;;;;;;;;;;;;;8.80;100.00;98757.03;6215320;23;20264;-85
2023/11/05 20:25:39;;;;;;;;;;;;;;;;;;;;;
2023/11/05 20:28:32;;;;;;;;;;;;;;;8.86;100.00;98765.22;6123396;23;20003;-86
2023/11/05 20:30:58;;;;;;;;;;;;;;;8.91;100.00;98768.81;6128194;23;20329;-85
2023/11/05 20:33:41;;;;;;;;;;;;;;;8.79;100.00;98770.72;6215627;23;19912;-85
2023/11/05 20:45:36;;;;;;;;;;;;;;;8.70;100.00;98798.94;6217794;23;19908;-85
2023/11/05 21:21:38;;;;;;;;;;;;;;;8.30;100.00;98860.22;6123537;23;19956;-84
2023/11/05 21:24:31;;;;;;;;;;;;;;;8.25;100.00;98867.34;6215638;23;20003;-84
2023/11/05 21:30:27;;;;;;;;;;;;;;;8.27;100.00;98882.16;6214632;23;19919;-84
2023/11/05 21:33:02;;;;;;;;;;;;;;;8.18;100.00;98873.63;6215389;23;19908;-85
2023/11/05 21:35:33;;;;;;;;;;;;;;;8.31;100.00;98887.88;6214668;23;19915;-84
2023/11/05 21:37:58;;;;;;;;;;;;;;;8.22;100.00;98878.50;6214845;23;19916;-84
2023/11/05 21:40:32;;;;;;;;;;;;;;;8.17;100.00;98897.97;6219183;23;19916;-84
2023/11/05 21:57:33;;;;;;;;;;;;;;;8.35;100.00;98910.50;6208454;23;19927;-83
2023/11/05 22:00:30;;;;;;;;;;;;;;;8.26;100.00;98928.78;6125233;23;19920;-84
2023/11/05 22:02:55;;;;;;;;;;;;;;;8.32;100.00;98919.78;6125387;23;19941;-84
2023/11/05 22:05:26;;;;;;;;;;;;;;;8.37;100.00;98923.66;6126159;23;19912;-84
2023/11/05 22:07:52;;;;;;;;;;;;;;;8.37;100.00;98919.13;6124802;23;19988;-84
2023/11/05 22:17:05;;;;;;;;;;;;;;;8.46;100.00;98916.94;6146631;23;19919;-83